KORD

Chicago O'hare International Airport

Chicago, Illinois, USA
KORD 181120Z 1812/1918 22012KT P6SM SCT250 FM181500 24012G20KT P6SM SCT050 SCT250 FM182200 27010KT P6SM BKN045 FM190000 02010KT P6SM VCTS BKN045CB TEMPO 1900/1904 2SM +TSRA SCT020 BKN035CB FM190600 04006KT 6SM BR VCSH SCT020 OVC035 FM191200 06006KT 6SM BR SCT009 BKN020
Issued Valid From Valid To
Jun-18 @ 11:20 UTC
(2 hours ago)
Jun-18 @ 12:00 UTC
(an hour ago)
Jun-19 @ 18:00 UTC
(-1 days ago)
Jun-18 @ 12:00 to Jun-18 @ 15:00
KORD 181120Z 1812/1918 22012KT P6SM SCT250
Wind Visibility Clouds
220° at 12 knots Greater than 6 miles
  • Scattered at 25,000' AGL
From Jun-18 @ 15:00 to Jun-18 @ 22:00
FM181500 24012G20KT P6SM SCT050 SCT250
Wind Visibility Clouds
240° at 12 knots
 Gusting to 20 knots
Greater than 6 miles
  • Scattered at 5,000' AGL
  • Scattered at 25,000' AGL
From Jun-18 @ 22:00 to Jun-19 @ 00:00
FM182200 27010KT P6SM BKN045
Wind Visibility Clouds
270° at 10 knots Greater than 6 miles
  • Broken at 4,500' AGL
Temporary Jun-19 @ 00:00 to Jun-19 @ 04:00
TEMPO 1900/1904 2SM +TSRA SCT020 BKN035CB
Visibility Clouds Conditions
2 miles
  • Scattered at 2,000' AGL
  • Broken at 3,500' AGL
  • Heavy Thunderstorm
  • Heavy Rain
From Jun-19 @ 00:00 to Jun-19 @ 06:00
FM190000 02010KT P6SM VCTS BKN045CB
Wind Visibility Clouds Conditions
20° at 10 knots Greater than 6 miles
  • Broken at 4,500' AGL
  • Area Thunderstorm
From Jun-19 @ 06:00 to Jun-19 @ 12:00
FM190600 04006KT 6SM BR VCSH SCT020 OVC035
Wind Visibility Clouds Conditions
40° at 6 knots 6 miles
  • Scattered at 2,000' AGL
  • Overcast at 3,500' AGL
  • Mist
From Jun-19 @ 12:00 to Jun-19 @ 18:00
FM191200 06006KT 6SM BR SCT009 BKN020
Wind Visibility Clouds Conditions
60° at 6 knots 6 miles
  • Scattered at 900' AGL
  • Broken at 2,000' AGL
  • Mist
KORD 181120Z 1812/1918 22012KT P6SM SCT250 FM181500 24012G20KT P6SM SCT050 SCT250 FM182200 27010KT P6SM BKN045 FM190000 02010KT P6SM VCTS BKN045CB TEMPO 1900/1904 2SM +TSRA SCT020 BKN035CB FM190600 04006KT 6SM BR VCSH SCT020 OVC035 FM191200 06006KT 6SM BR SCT009 BKN020
Issued Jun-18 @ 11:20 UTC
(2 hours ago)
Valid From Jun-18 @ 12:00 UTC
(an hour ago)
Valid To Jun-19 @ 18:00 UTC
(-1 days ago)
Jun-18 @ 12:00 - Jun-18 @ 15:00
Wind Visibility
220° at 12 knots Greater than 6 miles
Clouds
  • Scattered at 25,000' AGL
From Jun-18 @ 15:00 - Jun-18 @ 22:00
Wind Visibility
240° at 12 knots
 Gusting to 20 knots
Greater than 6 miles
Clouds
  • Scattered at 5,000' AGL
  • Scattered at 25,000' AGL
From Jun-18 @ 22:00 - Jun-19 @ 00:00
Wind Visibility
270° at 10 knots Greater than 6 miles
Clouds
  • Broken at 4,500' AGL
Temporary Jun-19 @ 00:00 - Jun-19 @ 04:00
Clouds
  • Scattered at 2,000' AGL
  • Broken at 3,500' AGL
Conditions
  • Heavy Thunderstorm
  • Heavy Rain
From Jun-19 @ 00:00 - Jun-19 @ 06:00
Wind Visibility
20° at 10 knots Greater than 6 miles
Clouds
  • Broken at 4,500' AGL
Conditions
  • Area Thunderstorm
From Jun-19 @ 06:00 - Jun-19 @ 12:00
Wind Visibility
40° at 6 knots 6 miles
Clouds
  • Scattered at 2,000' AGL
  • Overcast at 3,500' AGL
Conditions
  • Mist
From Jun-19 @ 12:00 - Jun-19 @ 18:00
Wind Visibility
60° at 6 knots 6 miles
Clouds
  • Scattered at 900' AGL
  • Broken at 2,000' AGL
Conditions
  • Mist